createdAt,value
2022-10-25T00:01:05.475Z,10.40
2022-10-25T00:03:32.149Z,10.30
2022-10-25T00:05:58.820Z,10.30
2022-10-25T00:08:25.621Z,10.30
2022-10-25T00:10:52.448Z,10.30
2022-10-25T00:13:19.108Z,10.20
2022-10-25T00:15:45.840Z,10.20
2022-10-25T00:18:12.497Z,10.20
2022-10-25T00:20:39.243Z,10.10
2022-10-25T00:23:05.885Z,10.10
2022-10-25T00:25:32.566Z,10.10
2022-10-25T00:27:59.277Z,10.10
2022-10-25T00:30:25.967Z,10.10
2022-10-25T00:32:53.520Z,10.10
2022-10-25T00:35:20.525Z,10.10
2022-10-25T00:37:47.332Z,10.10
2022-10-25T00:40:14.364Z,10.00
2022-10-25T00:42:41.123Z,10.00
2022-10-25T00:45:28.169Z,10.00
2022-10-25T00:48:00.835Z,10.00
2022-10-25T00:50:48.586Z,10.00
2022-10-25T00:53:20.390Z,10.10
2022-10-25T00:56:03.260Z,10.10
2022-10-25T00:58:32.922Z,10.10
2022-10-25T01:01:00.102Z,10.10
2022-10-25T01:03:26.919Z,10.00
2022-10-25T01:05:54.037Z,10.00
2022-10-25T01:08:21.692Z,10.00
2022-10-25T01:10:49.220Z,10.00
2022-10-25T01:13:16.274Z,10.00
2022-10-25T01:15:46.043Z,10.00
2022-10-25T01:18:28.241Z,9.90
2022-10-25T01:21:27.521Z,9.90
2022-10-25T01:24:37.670Z,9.80
2022-10-25T01:27:07.218Z,9.80
2022-10-25T01:29:49.407Z,9.80
2022-10-25T01:32:27.922Z,9.70
2022-10-25T01:35:03.170Z,9.70
2022-10-25T01:38:07.588Z,9.70
2022-10-25T01:40:41.569Z,9.60
2022-10-25T01:43:23.332Z,9.60
2022-10-25T01:46:00.038Z,9.60
2022-10-25T01:48:34.741Z,9.50
2022-10-25T01:51:16.306Z,9.50
2022-10-25T01:53:50.636Z,9.50
2022-10-25T01:56:52.748Z,9.40
2022-10-25T01:59:41.898Z,9.40
2022-10-25T02:02:46.750Z,9.40
2022-10-25T02:05:35.505Z,9.40
2022-10-25T02:08:41.149Z,9.40
2022-10-25T02:11:24.478Z,9.50
2022-10-25T02:14:22.109Z,9.50
2022-10-25T02:17:30.038Z,9.60
2022-10-25T02:20:00.554Z,9.60
2022-10-25T02:22:32.123Z,9.50
2022-10-25T02:25:00.673Z,9.50
2022-10-25T02:27:28.900Z,9.50
2022-10-25T02:29:56.903Z,9.50
2022-10-25T02:32:24.389Z,9.50
2022-10-25T02:34:51.613Z,9.60
2022-10-25T02:37:18.608Z,9.60
2022-10-25T02:39:46.034Z,9.60
2022-10-25T02:42:12.795Z,9.60
2022-10-25T02:44:39.649Z,9.60
2022-10-25T02:47:06.352Z,9.60
2022-10-25T02:49:33.252Z,9.60
2022-10-25T02:51:59.917Z,9.60
2022-10-25T02:54:26.573Z,9.70
2022-10-25T02:56:54.026Z,9.70
2022-10-25T02:59:21.534Z,9.70
2022-10-25T03:01:49.086Z,9.70
2022-10-25T03:04:15.854Z,9.70
2022-10-25T03:06:42.532Z,9.80
2022-10-25T03:09:09.185Z,9.80
2022-10-25T03:11:35.908Z,9.90
2022-10-25T03:14:02.673Z,9.90
2022-10-25T03:16:29.389Z,10.00
2022-10-25T03:18:59.739Z,10.00
2022-10-25T03:21:26.408Z,10.10
2022-10-25T03:23:53.119Z,10.10
2022-10-25T03:26:19.846Z,10.20
2022-10-25T03:28:46.794Z,10.20
2022-10-25T03:31:15.156Z,10.20
2022-10-25T03:33:41.974Z,10.30
2022-10-25T03:36:09.664Z,10.30
2022-10-25T03:38:36.537Z,10.30
2022-10-25T03:41:03.477Z,10.30
2022-10-25T03:43:30.228Z,10.30
2022-10-25T03:45:57.150Z,10.30
2022-10-25T03:48:23.806Z,10.30
2022-10-25T03:50:50.453Z,10.30
2022-10-25T03:53:17.199Z,10.30
2022-10-25T03:55:43.918Z,10.30
2022-10-25T03:58:10.763Z,10.30
2022-10-25T04:00:37.687Z,10.30
2022-10-25T04:03:04.418Z,10.40
2022-10-25T04:05:31.830Z,10.40
2022-10-25T04:07:59.407Z,10.40
2022-10-25T04:10:26.508Z,10.40
2022-10-25T04:12:54.750Z,10.50
2022-10-25T04:15:22.440Z,10.50
2022-10-25T04:17:50.771Z,10.50
2022-10-25T04:20:18.492Z,10.60
2022-10-25T04:22:45.299Z,10.60
2022-10-25T04:25:12.236Z,10.60
2022-10-25T04:27:39.316Z,10.60
2022-10-25T04:30:06.449Z,10.60
2022-10-25T04:32:33.128Z,10.60
2022-10-25T04:34:59.864Z,10.60
2022-10-25T04:37:26.631Z,10.60
2022-10-25T04:39:53.383Z,10.60
2022-10-25T04:42:20.042Z,10.60
2022-10-25T04:44:46.699Z,10.70
2022-10-25T04:47:13.636Z,10.60
2022-10-25T04:49:40.371Z,10.60
2022-10-25T04:52:07.005Z,10.50
2022-10-25T04:54:33.722Z,10.50
2022-10-25T04:57:00.505Z,10.50
2022-10-25T04:59:27.161Z,10.40
2022-10-25T05:01:53.830Z,10.50
2022-10-25T05:04:20.553Z,10.50
2022-10-25T05:06:47.327Z,10.50
2022-10-25T05:09:14.102Z,10.40
2022-10-25T05:11:40.787Z,10.30
2022-10-25T05:14:07.837Z,10.30
2022-10-25T05:16:35.283Z,10.30
2022-10-25T05:19:02.234Z,10.30
2022-10-25T05:21:31.015Z,10.30
2022-10-25T05:24:01.767Z,10.20
2022-10-25T05:26:29.656Z,10.20
2022-10-25T05:28:56.970Z,10.10
2022-10-25T05:31:29.536Z,10.10
2022-10-25T05:33:59.000Z,10.10
2022-10-25T05:36:25.781Z,10.00
2022-10-25T05:38:52.486Z,9.90
2022-10-25T05:41:19.630Z,9.80
2022-10-25T05:43:46.781Z,9.80
2022-10-25T05:46:21.804Z,9.80
2022-10-25T05:48:49.618Z,9.80
2022-10-25T05:51:34.787Z,9.80
2022-10-25T05:54:12.278Z,9.70
2022-10-25T05:56:40.381Z,9.80
2022-10-25T05:59:12.182Z,9.80
2022-10-25T06:01:41.683Z,9.90
2022-10-25T06:04:09.344Z,9.90
2022-10-25T06:06:38.557Z,10.00
2022-10-25T06:09:06.008Z,10.00
2022-10-25T06:11:33.382Z,10.10
2022-10-25T06:14:00.123Z,10.10
2022-10-25T06:16:26.962Z,10.20
2022-10-25T06:18:54.541Z,10.20
2022-10-25T06:21:23.836Z,10.30
2022-10-25T06:23:51.257Z,10.30
2022-10-25T06:26:21.509Z,10.40
2022-10-25T06:28:51.296Z,10.40
2022-10-25T06:31:21.263Z,10.40
2022-10-25T06:33:48.235Z,10.40
2022-10-25T06:36:17.594Z,10.50
2022-10-25T06:38:45.540Z,10.50
2022-10-25T06:41:24.497Z,10.50
2022-10-25T06:43:51.452Z,10.60
2022-10-25T06:46:23.934Z,10.60
2022-10-25T06:48:52.715Z,10.60
2022-10-25T06:51:19.899Z,10.60
2022-10-25T06:53:46.587Z,10.60
2022-10-25T06:56:15.092Z,10.60
2022-10-25T06:58:42.597Z,10.60
2022-10-25T07:01:14.715Z,10.60
2022-10-25T07:03:42.235Z,10.60
2022-10-25T07:06:11.846Z,10.60
2022-10-25T07:08:41.073Z,10.60
2022-10-25T07:11:13.200Z,10.60
2022-10-25T07:13:39.859Z,10.60
2022-10-25T07:16:08.652Z,10.80
2022-10-25T07:18:36.201Z,11.00
2022-10-25T07:21:05.473Z,11.10
2022-10-25T07:23:32.950Z,11.20
2022-10-25T07:26:00.228Z,11.50
2022-10-25T07:28:27.706Z,11.80
2022-10-25T07:30:54.380Z,12.20
2022-10-25T07:33:21.414Z,12.40
2022-10-25T07:36:05.821Z,12.50
2022-10-25T07:38:36.363Z,12.70
2022-10-25T07:41:03.392Z,13.00
2022-10-25T07:43:30.078Z,13.20
2022-10-25T07:45:57.018Z,13.40
2022-10-25T07:48:23.750Z,13.60
2022-10-25T07:50:51.110Z,13.60
2022-10-25T07:53:18.132Z,13.60
2022-10-25T07:55:51.624Z,13.60
2022-10-25T07:58:18.382Z,13.90
2022-10-25T08:00:45.163Z,13.90
2022-10-25T08:03:13.678Z,13.70
2022-10-25T08:05:40.641Z,13.40
2022-10-25T08:08:07.405Z,13.40
2022-10-25T08:10:34.110Z,13.40
2022-10-25T08:13:00.828Z,13.50
2022-10-25T08:15:27.598Z,13.60
2022-10-25T08:18:01.737Z,13.60
2022-10-25T08:20:49.654Z,13.70
2022-10-25T08:23:15.936Z,13.70
2022-10-25T08:25:42.981Z,13.70
2022-10-25T08:28:10.221Z,13.70
2022-10-25T08:30:37.009Z,13.70
2022-10-25T08:33:03.770Z,13.70
2022-10-25T08:35:30.499Z,13.80
2022-10-25T08:38:00.666Z,14.20
2022-10-25T08:40:41.485Z,14.60
2022-10-25T08:43:32.276Z,14.80
2022-10-25T08:46:06.749Z,14.90
2022-10-25T08:48:40.624Z,15.10
2022-10-25T08:51:35.011Z,15.20
2022-10-25T08:54:08.563Z,15.50
2022-10-25T08:56:42.574Z,15.80
2022-10-25T08:59:23.172Z,15.70
2022-10-25T09:01:56.151Z,15.70
2022-10-25T09:04:23.202Z,15.90
2022-10-25T09:06:55.776Z,16.00
2022-10-25T09:09:34.482Z,16.20
2022-10-25T09:12:26.261Z,16.20
2022-10-25T09:15:12.726Z,16.30
2022-10-25T09:17:49.344Z,16.40
2022-10-25T09:20:21.760Z,16.50
2022-10-25T09:22:50.517Z,16.60
2022-10-25T09:25:23.318Z,16.60
2022-10-25T09:28:03.730Z,16.50
2022-10-25T09:30:37.512Z,16.60
2022-10-25T09:33:10.286Z,16.60
2022-10-25T09:35:47.103Z,16.80
2022-10-25T09:38:24.770Z,16.90
2022-10-25T09:41:03.178Z,17.00
2022-10-25T09:43:37.424Z,16.90
2022-10-25T09:46:16.894Z,16.90
2022-10-25T09:48:55.114Z,16.60
2022-10-25T09:51:32.884Z,16.60
2022-10-25T09:54:02.135Z,16.70
2022-10-25T09:56:28.952Z,16.80
2022-10-25T09:58:56.875Z,16.70
2022-10-25T10:01:26.807Z,16.70
2022-10-25T10:03:58.041Z,16.80
2022-10-25T10:06:35.857Z,16.80
2022-10-25T10:09:08.154Z,16.90
2022-10-25T10:11:36.483Z,16.90
2022-10-25T10:14:27.216Z,17.00
2022-10-25T10:16:57.147Z,16.80
2022-10-25T10:19:26.094Z,16.80
2022-10-25T10:21:56.013Z,16.80
2022-10-25T10:24:32.214Z,16.80
2022-10-25T10:27:05.806Z,16.70
2022-10-25T10:29:36.163Z,16.60
2022-10-25T10:32:22.634Z,16.60
2022-10-25T10:34:55.168Z,16.70
2022-10-25T10:37:27.417Z,16.70
2022-10-25T10:39:56.063Z,16.80
2022-10-25T10:45:07.866Z,17.20
2022-10-25T10:47:43.037Z,17.10
2022-10-25T10:50:25.486Z,17.20
2022-10-25T10:52:58.463Z,17.50
2022-10-25T10:55:43.929Z,17.60
2022-10-25T10:58:17.585Z,17.70
2022-10-25T11:00:56.014Z,17.40
2022-10-25T11:03:35.070Z,17.10
2022-10-25T11:06:01.854Z,17.00
2022-10-25T11:08:28.517Z,17.20
2022-10-25T11:11:14.536Z,17.40
2022-10-25T11:13:46.916Z,17.40
2022-10-25T11:16:42.065Z,17.30
2022-10-25T11:19:33.124Z,17.10
2022-10-25T11:22:11.673Z,17.00
2022-10-25T11:24:47.224Z,17.00
2022-10-25T11:27:42.477Z,17.00
2022-10-25T11:30:16.819Z,17.00
2022-10-25T11:33:17.409Z,17.00
2022-10-25T11:36:01.761Z,17.20
2022-10-25T11:38:35.230Z,17.80
2022-10-25T11:41:06.795Z,18.50
2022-10-25T11:43:48.462Z,19.20
2022-10-25T11:46:20.955Z,19.60
2022-10-25T11:49:16.554Z,19.90
2022-10-25T11:51:58.225Z,20.00
2022-10-25T11:54:24.872Z,20.40
2022-10-25T11:57:16.840Z,20.60
2022-10-25T12:00:12.534Z,20.80
2022-10-25T12:02:39.261Z,20.70
2022-10-25T12:05:42.133Z,20.90
2022-10-25T12:08:08.737Z,21.20
2022-10-25T12:10:49.839Z,21.10
2022-10-25T12:13:32.835Z,20.40
2022-10-25T12:15:59.985Z,20.50
2022-10-25T12:18:35.121Z,20.50
2022-10-25T12:21:03.322Z,20.30
2022-10-25T12:23:39.050Z,20.00
2022-10-25T12:26:11.473Z,19.80
2022-10-25T12:28:49.780Z,19.30
2022-10-25T12:31:40.777Z,19.00
2022-10-25T12:34:22.613Z,18.60
2022-10-25T12:36:56.600Z,18.30
2022-10-25T12:39:36.098Z,18.00
2022-10-25T12:42:20.548Z,17.90
2022-10-25T12:45:08.408Z,17.80
2022-10-25T12:47:44.528Z,17.90
2022-10-25T12:50:48.240Z,17.90
2022-10-25T12:53:58.272Z,17.70
2022-10-25T12:56:58.693Z,17.60
2022-10-25T12:59:43.282Z,18.10
2022-10-25T13:02:44.745Z,18.50
2022-10-25T13:05:45.637Z,19.20
2022-10-25T13:08:16.246Z,19.80
2022-10-25T13:10:48.085Z,20.00
2022-10-25T13:13:23.530Z,20.20
2022-10-25T13:15:54.104Z,20.00
2022-10-25T13:18:32.745Z,20.00
2022-10-25T13:21:05.226Z,20.00
2022-10-25T13:23:46.716Z,19.70
2022-10-25T13:26:21.034Z,19.40
2022-10-25T13:28:51.009Z,19.30
2022-10-25T13:31:36.061Z,19.30
2022-10-25T13:34:14.625Z,19.10
2022-10-25T13:36:54.433Z,18.80
2022-10-25T13:39:45.275Z,18.50
2022-10-25T13:42:14.880Z,18.40
2022-10-25T13:44:50.619Z,18.50
2022-10-25T13:47:39.969Z,18.60
2022-10-25T13:50:29.696Z,18.70
2022-10-25T13:53:03.720Z,18.70
2022-10-25T13:55:54.219Z,18.90
2022-10-25T13:58:31.848Z,19.30
2022-10-25T14:01:18.872Z,19.60
2022-10-25T14:03:54.032Z,19.90
2022-10-25T14:06:33.043Z,19.90
2022-10-25T14:09:18.324Z,20.00
2022-10-25T14:11:51.511Z,20.20
2022-10-25T14:14:44.223Z,20.30
2022-10-25T14:17:32.597Z,20.10
2022-10-25T14:20:02.762Z,19.80
2022-10-25T14:22:51.612Z,19.50
2022-10-25T14:25:18.221Z,19.50
2022-10-25T14:27:44.903Z,19.60
2022-10-25T14:30:24.997Z,19.60
2022-10-25T14:33:00.642Z,19.80
2022-10-25T14:35:46.092Z,19.60
2022-10-25T14:38:20.062Z,19.60
2022-10-25T14:41:09.873Z,19.60
2022-10-25T14:43:38.574Z,19.60
2022-10-25T14:46:14.648Z,19.60
2022-10-25T14:48:45.161Z,19.40
2022-10-25T14:51:21.722Z,19.20
2022-10-25T14:54:00.437Z,19.20
2022-10-25T14:56:37.779Z,19.20
2022-10-25T14:59:07.788Z,19.30
2022-10-25T15:01:51.213Z,19.30
2022-10-25T15:04:26.485Z,19.30
2022-10-25T15:06:53.334Z,19.20
2022-10-25T15:12:16.761Z,18.90
2022-10-25T15:14:46.458Z,18.80
2022-10-25T15:17:16.124Z,18.60
2022-10-25T15:20:01.724Z,18.40
2022-10-25T15:22:42.002Z,18.20
2022-10-25T15:25:24.493Z,18.00
2022-10-25T15:27:54.654Z,17.80
2022-10-25T15:30:49.664Z,17.60
2022-10-25T15:33:19.313Z,17.30
2022-10-25T15:35:55.481Z,17.20
2022-10-25T15:38:37.030Z,17.10
2022-10-25T15:41:12.788Z,16.90
2022-10-25T15:43:39.446Z,16.70
2022-10-25T15:46:07.775Z,16.50
2022-10-25T15:48:34.579Z,16.30
2022-10-25T15:51:01.216Z,16.10
2022-10-25T15:53:27.927Z,16.00
2022-10-25T15:55:54.664Z,15.80
2022-10-25T15:58:21.350Z,15.70
2022-10-25T16:00:51.882Z,15.50
2022-10-25T16:03:24.571Z,15.40
2022-10-25T16:05:52.287Z,15.30
2022-10-25T16:08:19.076Z,15.20
2022-10-25T16:10:45.902Z,15.10
2022-10-25T16:13:19.387Z,14.80
2022-10-25T16:15:46.030Z,14.70
2022-10-25T16:18:12.832Z,14.60
2022-10-25T16:20:39.539Z,14.50
2022-10-25T16:23:06.225Z,14.40
2022-10-25T16:25:33.399Z,14.40
2022-10-25T16:28:00.599Z,14.40
2022-10-25T16:30:33.871Z,14.30
2022-10-25T16:33:00.952Z,14.20
2022-10-25T16:35:27.720Z,14.10
2022-10-25T16:37:54.528Z,14.00
2022-10-25T16:40:22.394Z,13.80
2022-10-25T16:42:49.942Z,13.80
2022-10-25T16:45:26.511Z,13.80
2022-10-25T16:47:57.648Z,13.80
2022-10-25T16:50:26.500Z,13.70
2022-10-25T16:52:55.717Z,13.70
2022-10-25T16:55:23.241Z,13.70
2022-10-25T16:57:50.021Z,13.70
2022-10-25T17:00:17.075Z,13.70
2022-10-25T17:02:44.147Z,13.60
2022-10-25T17:05:20.603Z,13.60
2022-10-25T17:07:47.708Z,13.40
2022-10-25T17:10:16.847Z,13.30
2022-10-25T17:12:47.842Z,13.30
2022-10-25T17:15:15.484Z,13.30
2022-10-25T17:17:42.436Z,13.30
2022-10-25T17:20:10.896Z,13.30
2022-10-25T17:22:38.469Z,13.20
2022-10-25T17:25:06.559Z,13.20
2022-10-25T17:27:39.610Z,13.10
2022-10-25T17:30:07.844Z,13.10
2022-10-25T17:32:34.538Z,13.10
2022-10-25T17:35:01.385Z,13.10
2022-10-25T17:37:28.585Z,13.10
2022-10-25T17:39:55.216Z,13.00
2022-10-25T17:42:22.090Z,12.90
2022-10-25T17:44:48.962Z,12.90
2022-10-25T17:47:16.124Z,12.80
2022-10-25T17:49:42.820Z,12.80
2022-10-25T17:52:09.881Z,12.70
2022-10-25T17:54:38.446Z,12.70
2022-10-25T17:57:05.878Z,12.60
2022-10-25T17:59:33.516Z,12.60
2022-10-25T18:02:00.517Z,12.50
2022-10-25T18:04:27.506Z,12.50
2022-10-25T18:06:54.170Z,12.40
2022-10-25T18:09:20.968Z,12.30
2022-10-25T18:11:47.709Z,12.40
2022-10-25T18:14:14.372Z,12.30
2022-10-25T18:16:41.471Z,12.20
2022-10-25T18:19:13.800Z,12.10
2022-10-25T18:21:41.154Z,12.10
2022-10-25T18:24:07.971Z,12.10
2022-10-25T18:26:35.282Z,12.10
2022-10-25T18:29:02.207Z,12.10
2022-10-25T18:31:29.026Z,12.10
2022-10-25T18:33:56.306Z,12.00
2022-10-25T18:36:23.067Z,12.00
2022-10-25T18:38:50.952Z,12.00
2022-10-25T18:41:20.623Z,12.00
2022-10-25T18:43:47.328Z,12.00
2022-10-25T18:46:14.461Z,12.00
2022-10-25T18:48:41.835Z,12.00
2022-10-25T18:51:11.915Z,11.90
2022-10-25T18:53:39.632Z,11.80
2022-10-25T18:56:10.712Z,11.80
2022-10-25T18:58:37.777Z,11.80
2022-10-25T19:01:13.341Z,11.70
2022-10-25T19:03:40.596Z,11.60
2022-10-25T19:06:07.945Z,11.60
2022-10-25T19:08:35.436Z,11.70
2022-10-25T19:11:09.597Z,11.60
2022-10-25T19:13:36.397Z,11.60
2022-10-25T19:16:03.483Z,11.60
2022-10-25T19:18:31.811Z,11.60
2022-10-25T19:21:07.825Z,11.50
2022-10-25T19:23:35.177Z,11.40
2022-10-25T19:26:07.333Z,11.40
2022-10-25T19:28:34.241Z,11.40
2022-10-25T19:31:08.976Z,11.40
2022-10-25T19:33:36.121Z,11.40
2022-10-25T19:36:08.792Z,11.40
2022-10-25T19:38:36.598Z,11.50
2022-10-25T19:41:05.849Z,11.50
2022-10-25T19:43:33.744Z,11.50
2022-10-25T19:46:04.626Z,11.50
2022-10-25T19:48:31.811Z,11.40
2022-10-25T19:51:10.909Z,11.40
2022-10-25T19:53:37.989Z,11.50
2022-10-25T19:56:12.901Z,11.50
2022-10-25T19:58:40.353Z,11.40
2022-10-25T20:01:08.617Z,11.40
2022-10-25T20:03:35.872Z,11.40
2022-10-25T20:06:09.038Z,11.30
2022-10-25T20:08:37.529Z,11.30
2022-10-25T20:11:04.986Z,11.30
2022-10-25T20:13:31.960Z,11.30
2022-10-25T20:15:58.940Z,11.30
2022-10-25T20:18:30.091Z,11.30
2022-10-25T20:21:02.690Z,11.30
2022-10-25T20:23:29.688Z,11.30
2022-10-25T20:25:56.465Z,11.30
2022-10-25T20:28:23.709Z,11.20
2022-10-25T20:30:50.913Z,11.20
2022-10-25T20:33:19.893Z,11.00
2022-10-25T20:35:46.575Z,11.00
2022-10-25T20:38:13.760Z,11.00
2022-10-25T20:40:41.075Z,11.00
2022-10-25T20:43:07.849Z,11.00
2022-10-25T20:45:34.719Z,11.00
2022-10-25T20:48:01.606Z,11.00
2022-10-25T20:50:29.757Z,10.90
2022-10-25T20:53:09.898Z,10.80
2022-10-25T20:55:37.241Z,10.70
2022-10-25T20:58:04.198Z,10.70
2022-10-25T21:00:32.282Z,10.70
2022-10-25T21:02:59.904Z,10.70
2022-10-25T21:05:26.915Z,10.60
2022-10-25T21:07:53.764Z,10.60
2022-10-25T21:10:20.526Z,10.60
2022-10-25T21:12:47.268Z,10.70
2022-10-25T21:15:13.935Z,10.70
2022-10-25T21:17:40.726Z,10.70
2022-10-25T21:20:08.197Z,10.60
2022-10-25T21:22:34.931Z,10.60
2022-10-25T21:25:01.611Z,10.60
2022-10-25T21:27:28.299Z,10.60
2022-10-25T21:29:54.942Z,10.60
2022-10-25T21:32:21.625Z,10.50
2022-10-25T21:34:48.265Z,10.50
2022-10-25T21:37:15.032Z,10.40
2022-10-25T21:39:43.372Z,10.30
2022-10-25T21:42:10.170Z,10.20
2022-10-25T21:44:37.034Z,10.20
2022-10-25T21:47:03.717Z,10.20
2022-10-25T21:49:30.470Z,10.10
2022-10-25T21:51:57.274Z,10.20
2022-10-25T21:54:24.871Z,10.20
2022-10-25T21:56:54.921Z,10.10
2022-10-25T21:59:22.540Z,10.20
2022-10-25T22:01:49.446Z,10.20
2022-10-25T22:04:16.423Z,10.30
2022-10-25T22:06:43.094Z,10.30
2022-10-25T22:09:09.810Z,10.30
2022-10-25T22:11:38.380Z,10.40
2022-10-25T22:14:08.075Z,10.50
2022-10-25T22:16:35.237Z,10.50
2022-10-25T22:19:08.029Z,10.60
2022-10-25T22:21:38.234Z,10.70
2022-10-25T22:24:08.340Z,10.80
2022-10-25T22:26:36.917Z,10.80
2022-10-25T22:29:04.255Z,10.70
2022-10-25T22:31:31.410Z,10.50
2022-10-25T22:34:00.916Z,10.40
2022-10-25T22:36:32.829Z,10.40
2022-10-25T22:38:59.635Z,10.30
2022-10-25T22:41:29.112Z,10.20
2022-10-25T22:43:56.489Z,10.20
2022-10-25T22:46:34.586Z,10.20
2022-10-25T22:49:06.114Z,10.10
2022-10-25T22:51:32.861Z,10.00
2022-10-25T22:53:59.540Z,10.00
2022-10-25T22:56:28.938Z,9.90
2022-10-25T22:58:57.393Z,9.90
2022-10-25T23:01:29.794Z,10.00
2022-10-25T23:03:57.877Z,10.10
2022-10-25T23:06:27.012Z,10.20
2022-10-25T23:08:55.378Z,10.30
2022-10-25T23:11:33.868Z,10.40
2022-10-25T23:14:01.379Z,10.40
2022-10-25T23:16:29.267Z,10.30
2022-10-25T23:18:56.508Z,10.30
2022-10-25T23:21:27.854Z,10.20
2022-10-25T23:23:56.299Z,10.30
2022-10-25T23:26:32.087Z,10.30
2022-10-25T23:28:59.873Z,10.30
2022-10-25T23:31:27.226Z,10.30
2022-10-25T23:33:56.534Z,10.30
2022-10-25T23:36:25.464Z,10.30
2022-10-25T23:38:53.392Z,10.40
2022-10-25T23:41:21.468Z,10.40
2022-10-25T23:43:48.888Z,10.50
2022-10-25T23:46:15.784Z,10.50
2022-10-25T23:48:42.584Z,10.50
2022-10-25T23:51:11.496Z,10.50
2022-10-25T23:53:38.428Z,10.60
2022-10-25T23:56:07.376Z,10.70
2022-10-25T23:58:34.320Z,10.70
